createdAt,value
2019-05-18T00:00:42.819Z,1004.02
2019-05-18T00:01:42.781Z,1004.00
2019-05-18T00:02:42.768Z,1004.03
2019-05-18T00:03:42.752Z,1004.02
2019-05-18T00:04:42.735Z,1004.04
2019-05-18T00:05:42.725Z,1003.96
2019-05-18T00:06:42.733Z,1003.95
2019-05-18T00:07:42.713Z,1003.96
2019-05-18T00:08:42.695Z,1003.97
2019-05-18T00:09:42.686Z,1003.94
2019-05-18T00:10:42.698Z,1003.91
2019-05-18T00:11:42.669Z,1003.92
2019-05-18T00:12:42.649Z,1003.91
2019-05-18T00:13:42.642Z,1003.92
2019-05-18T00:14:42.628Z,1003.88
2019-05-18T00:15:42.618Z,1003.86
2019-05-18T00:16:42.640Z,1003.88
2019-05-18T00:17:42.599Z,1003.92
2019-05-18T00:18:42.603Z,1003.93
2019-05-18T00:19:42.576Z,1003.87
2019-05-18T00:20:42.572Z,1003.97
2019-05-18T00:21:42.544Z,1004.02
2019-05-18T00:22:42.570Z,1003.98
2019-05-18T00:23:42.525Z,1004.06
2019-05-18T00:24:42.528Z,1004.02
2019-05-18T00:25:42.506Z,1004.05
2019-05-18T00:26:42.499Z,1004.00
2019-05-18T00:27:42.486Z,1003.96
2019-05-18T00:28:42.483Z,1004.01
2019-05-18T00:29:42.470Z,1004.04
2019-05-18T00:30:42.445Z,1003.99
2019-05-18T00:31:42.436Z,1003.98
2019-05-18T00:32:42.431Z,1003.99
2019-05-18T00:33:42.457Z,1003.97
2019-05-18T00:34:42.408Z,1003.97
2019-05-18T00:35:42.396Z,1003.99
2019-05-18T00:36:42.381Z,1004.00
2019-05-18T00:37:42.364Z,1003.95
2019-05-18T00:38:42.355Z,1003.99
2019-05-18T00:39:42.353Z,1003.99
2019-05-18T00:40:42.336Z,1003.97
2019-05-18T00:41:45.379Z,1004.03
2019-05-18T00:42:42.315Z,1004.02
2019-05-18T00:43:42.296Z,1003.98
2019-05-18T00:44:42.296Z,1003.99
2019-05-18T00:45:42.273Z,1003.98
2019-05-18T00:46:42.282Z,1004.00
2019-05-18T00:47:42.519Z,1003.98
2019-05-18T00:48:42.246Z,1004.04
2019-05-18T00:49:42.255Z,1004.11
2019-05-18T00:50:42.236Z,1004.06
2019-05-18T00:51:42.211Z,1004.10
2019-05-18T00:52:42.196Z,1004.07
2019-05-18T00:53:42.182Z,1004.09
2019-05-18T00:54:42.178Z,1004.04
2019-05-18T00:55:42.170Z,1004.03
2019-05-18T00:56:42.187Z,1004.02
2019-05-18T00:57:42.144Z,1003.99
2019-05-18T00:58:42.126Z,1004.03
2019-05-18T00:59:42.125Z,1004.02
2019-05-18T01:00:42.141Z,1004.02
2019-05-18T01:01:42.093Z,1003.97
2019-05-18T01:02:42.086Z,1003.99
2019-05-18T01:03:42.070Z,1004.00
2019-05-18T01:04:42.060Z,1004.01
2019-05-18T01:05:42.048Z,1003.98
2019-05-18T01:06:42.039Z,1003.94
2019-05-18T01:07:42.024Z,1003.99
2019-05-18T01:08:42.024Z,1003.99
2019-05-18T01:09:42.010Z,1003.97
2019-05-18T01:10:42.015Z,1004.04
2019-05-18T01:11:42.004Z,1004.01
2019-05-18T01:12:41.972Z,1003.99
2019-05-18T01:13:41.961Z,1003.99
2019-05-18T01:14:41.954Z,1003.95
2019-05-18T01:15:41.933Z,1003.94
2019-05-18T01:16:41.937Z,1003.94
2019-05-18T01:17:55.094Z,1003.97
2019-05-18T01:18:42.912Z,1003.98
2019-05-18T01:19:41.899Z,1003.99
2019-05-18T01:20:41.891Z,1004.02
2019-05-18T01:21:41.870Z,1003.89
2019-05-18T01:22:41.854Z,1003.96
2019-05-18T01:23:41.846Z,1003.95
2019-05-18T01:24:41.841Z,1003.93
2019-05-18T01:25:41.829Z,1003.94
2019-05-18T01:26:41.820Z,1003.90
2019-05-18T01:27:41.798Z,1003.94
2019-05-18T01:28:41.797Z,1003.93
2019-05-18T01:29:41.781Z,1004.01
2019-05-18T01:30:41.765Z,1003.93
2019-05-18T01:31:41.778Z,1003.91
2019-05-18T01:32:41.750Z,1003.90
2019-05-18T01:33:41.742Z,1003.93
2019-05-18T01:34:41.736Z,1003.94
2019-05-18T01:35:41.717Z,1003.99
2019-05-18T01:36:41.701Z,1004.03
2019-05-18T01:37:41.703Z,1004.06
2019-05-18T01:38:41.690Z,1004.08
2019-05-18T01:39:41.676Z,1004.07
2019-05-18T01:40:41.655Z,1004.07
2019-05-18T01:41:41.661Z,1004.08
2019-05-18T01:42:41.635Z,1004.06
2019-05-18T01:43:41.636Z,1004.05
2019-05-18T01:44:41.621Z,1004.04
2019-05-18T01:45:41.600Z,1004.05
2019-05-18T01:46:41.589Z,1004.10
2019-05-18T01:47:41.593Z,1004.06
2019-05-18T01:48:41.595Z,1004.04
2019-05-18T01:49:41.597Z,1004.03
2019-05-18T01:50:41.549Z,1004.00
2019-05-18T01:51:41.532Z,1004.06
2019-05-18T01:52:41.528Z,1004.08
2019-05-18T01:53:41.513Z,1004.06
2019-05-18T01:54:41.538Z,1004.08
2019-05-18T01:55:41.500Z,1004.08
2019-05-18T01:56:41.493Z,1004.05
2019-05-18T01:57:41.488Z,1004.02
2019-05-18T01:58:41.463Z,1004.03
2019-05-18T01:59:41.451Z,1004.08
2019-05-18T02:00:41.444Z,1004.04
2019-05-18T02:01:41.429Z,1004.01
2019-05-18T02:02:41.416Z,1004.00
2019-05-18T02:03:41.407Z,1004.04
2019-05-18T02:04:41.399Z,1004.01
2019-05-18T02:05:41.390Z,1004.05
2019-05-18T02:06:41.402Z,1004.05
2019-05-18T02:07:41.385Z,1004.03
2019-05-18T02:08:41.350Z,1004.04
2019-05-18T02:09:41.344Z,1004.07
2019-05-18T02:10:41.331Z,1004.07
2019-05-18T02:11:41.320Z,1004.02
2019-05-18T02:12:41.325Z,1004.04
2019-05-18T02:13:41.305Z,1004.07
2019-05-18T02:14:41.284Z,1004.03
2019-05-18T02:15:41.276Z,1004.14
2019-05-18T02:16:41.269Z,1003.96
2019-05-18T02:17:41.302Z,1004.12
2019-05-18T02:18:41.241Z,1003.98
2019-05-18T02:19:41.238Z,1004.01
2019-05-18T02:20:41.224Z,1004.02
2019-05-18T02:21:41.213Z,1004.05
2019-05-18T02:22:41.208Z,1004.07
2019-05-18T02:23:41.202Z,1004.04
2019-05-18T02:24:41.178Z,1004.07
2019-05-18T02:25:41.166Z,1004.10
2019-05-18T02:26:41.160Z,1004.15
2019-05-18T02:27:41.143Z,1004.09
2019-05-18T02:28:41.147Z,1004.14
2019-05-18T02:29:41.137Z,1004.09
2019-05-18T02:30:41.141Z,1004.16
2019-05-18T02:31:41.101Z,1004.09
2019-05-18T02:32:41.090Z,1004.13
2019-05-18T02:33:41.094Z,1004.09
2019-05-18T02:34:41.072Z,1004.12
2019-05-18T02:35:41.067Z,1004.08
2019-05-18T02:36:41.058Z,1004.06
2019-05-18T02:37:41.039Z,1004.08
2019-05-18T02:38:41.032Z,1004.10
2019-05-18T02:39:41.056Z,1004.05
2019-05-18T02:40:41.009Z,1004.02
2019-05-18T02:41:40.998Z,1004.10
2019-05-18T02:42:40.987Z,1004.05
2019-05-18T02:43:40.995Z,1004.02
2019-05-18T02:44:40.996Z,1004.00
2019-05-18T02:45:40.962Z,1004.03
2019-05-18T02:46:40.945Z,1003.97
2019-05-18T02:47:40.942Z,1003.95
2019-05-18T02:48:49.308Z,1003.98
2019-05-18T02:49:41.914Z,1004.04
2019-05-18T02:50:40.920Z,1004.01
2019-05-18T02:51:40.918Z,1004.02
2019-05-18T02:52:40.881Z,1003.96
2019-05-18T02:53:40.893Z,1003.95
2019-05-18T02:54:40.860Z,1003.94
2019-05-18T02:55:40.858Z,1003.98
2019-05-18T02:56:40.837Z,1003.93
2019-05-18T02:57:40.843Z,1003.95
2019-05-18T02:58:40.825Z,1003.96
2019-05-18T02:59:40.818Z,1003.96
2019-05-18T03:00:40.821Z,1004.00
2019-05-18T03:01:40.796Z,1004.03
2019-05-18T03:02:40.769Z,1003.97
2019-05-18T03:03:40.759Z,1003.98
2019-05-18T03:04:40.754Z,1003.96
2019-05-18T03:05:40.752Z,1003.99
2019-05-18T03:06:40.748Z,1003.92
2019-05-18T03:07:40.725Z,1003.91
2019-05-18T03:08:40.705Z,1003.95
2019-05-18T03:09:40.697Z,1003.95
2019-05-18T03:10:40.687Z,1003.95
2019-05-18T03:11:40.709Z,1003.97
2019-05-18T03:12:40.667Z,1004.02
2019-05-18T03:13:40.657Z,1003.96
2019-05-18T03:14:40.646Z,1003.97
2019-05-18T03:15:40.635Z,1003.99
2019-05-18T03:16:40.622Z,1003.95
2019-05-18T03:17:40.641Z,1003.99
2019-05-18T03:18:40.597Z,1003.96
2019-05-18T03:19:40.590Z,1004.00
2019-05-18T03:20:40.581Z,1003.96
2019-05-18T03:21:40.573Z,1003.95
2019-05-18T03:22:40.560Z,1004.04
2019-05-18T03:23:40.557Z,1004.00
2019-05-18T03:24:40.537Z,1004.00
2019-05-18T03:25:40.529Z,1004.04
2019-05-18T03:26:40.514Z,1004.02
2019-05-18T03:27:40.521Z,1003.98
2019-05-18T03:28:40.509Z,1004.01
2019-05-18T03:29:40.485Z,1003.99
2019-05-18T03:30:40.475Z,1004.03
2019-05-18T03:31:40.468Z,1003.95
2019-05-18T03:32:40.459Z,1003.99
2019-05-18T03:33:40.447Z,1004.06
2019-05-18T03:34:40.436Z,1004.00
2019-05-18T03:35:40.448Z,1004.01
2019-05-18T03:36:40.412Z,1004.02
2019-05-18T03:37:40.415Z,1004.06
2019-05-18T03:38:40.398Z,1004.06
2019-05-18T03:39:40.371Z,1004.04
2019-05-18T03:40:40.368Z,1004.02
2019-05-18T03:41:40.358Z,1004.04
2019-05-18T03:42:40.338Z,1004.01
2019-05-18T03:43:40.342Z,1004.08
2019-05-18T03:44:40.318Z,1004.10
2019-05-18T03:45:40.330Z,1004.09
2019-05-18T03:46:40.321Z,1004.12
2019-05-18T03:47:40.284Z,1004.05
2019-05-18T03:48:40.276Z,1004.06
2019-05-18T03:49:40.268Z,1004.05
2019-05-18T03:50:40.255Z,1003.98
2019-05-18T03:51:40.276Z,1004.07
2019-05-18T03:52:40.264Z,1003.98
2019-05-18T03:53:40.225Z,1003.97
2019-05-18T03:54:40.227Z,1003.98
2019-05-18T03:55:40.199Z,1004.01
2019-05-18T03:56:40.192Z,1003.98
2019-05-18T03:57:40.188Z,1003.95
2019-05-18T03:58:40.163Z,1003.96
2019-05-18T03:59:40.153Z,1003.98
2019-05-18T04:00:40.140Z,1003.95
2019-05-18T04:01:40.142Z,1003.99
2019-05-18T04:02:40.204Z,1003.99
2019-05-18T04:03:40.113Z,1003.94
2019-05-18T04:04:40.097Z,1003.97
2019-05-18T04:05:40.097Z,1003.96
2019-05-18T04:06:40.074Z,1003.99
2019-05-18T04:07:40.078Z,1003.95
2019-05-18T04:08:40.058Z,1003.98
2019-05-18T04:09:40.047Z,1003.98
2019-05-18T04:10:40.051Z,1003.94
2019-05-18T04:11:40.023Z,1003.95
2019-05-18T04:12:40.014Z,1003.92
2019-05-18T04:13:40.003Z,1003.92
2019-05-18T04:14:39.999Z,1003.96
2019-05-18T04:15:39.980Z,1003.90
2019-05-18T04:16:39.981Z,1003.91
2019-05-18T04:17:39.957Z,1003.93
2019-05-18T04:18:39.962Z,1003.94
2019-05-18T04:19:46.223Z,1003.92
2019-05-18T04:20:40.915Z,1003.92
2019-05-18T04:21:39.950Z,1003.99
2019-05-18T04:22:39.906Z,1003.95
2019-05-18T04:23:39.892Z,1003.99
2019-05-18T04:24:39.880Z,1003.92
2019-05-18T04:25:43.567Z,1003.91
2019-05-18T04:26:39.848Z,1003.91
2019-05-18T04:27:39.850Z,1003.89
2019-05-18T04:28:39.831Z,1003.84
2019-05-18T04:29:39.822Z,1003.89
2019-05-18T04:30:39.819Z,1003.88
2019-05-18T04:31:39.829Z,1003.89
2019-05-18T04:32:39.817Z,1003.92
2019-05-18T04:33:39.769Z,1003.93
2019-05-18T04:34:39.770Z,1003.86
2019-05-18T04:35:39.772Z,1003.89
2019-05-18T04:36:39.788Z,1003.90
2019-05-18T04:37:39.730Z,1003.86
2019-05-18T04:38:39.719Z,1003.86
2019-05-18T04:39:39.710Z,1003.84
2019-05-18T04:40:39.693Z,1003.88
2019-05-18T04:41:39.699Z,1003.87
2019-05-18T04:42:39.682Z,1003.86
2019-05-18T04:43:39.674Z,1003.87
2019-05-18T04:44:39.657Z,1003.91
2019-05-18T04:45:39.641Z,1003.91
2019-05-18T04:46:39.651Z,1003.90
2019-05-18T04:47:39.616Z,1003.94
2019-05-18T04:48:39.599Z,1003.95
2019-05-18T04:49:39.592Z,1003.91
2019-05-18T04:50:39.592Z,1003.92
2019-05-18T04:51:39.571Z,1003.95
2019-05-18T04:52:39.566Z,1003.91
2019-05-18T04:53:39.544Z,1003.96
2019-05-18T04:54:39.561Z,1003.92
2019-05-18T04:55:39.526Z,1003.99
2019-05-18T04:56:42.848Z,1003.97
2019-05-18T04:57:39.519Z,1003.91
2019-05-18T04:58:39.492Z,1003.88
2019-05-18T04:59:39.477Z,1003.94
2019-05-18T05:00:39.471Z,1003.95
2019-05-18T05:01:39.464Z,1003.89
2019-05-18T05:02:39.469Z,1003.84
2019-05-18T05:03:39.438Z,1003.89
2019-05-18T05:04:39.444Z,1003.82
2019-05-18T05:05:39.418Z,1003.87
2019-05-18T05:06:39.398Z,1003.88
2019-05-18T05:07:39.394Z,1003.84
2019-05-18T05:08:39.389Z,1003.85
2019-05-18T05:09:39.379Z,1003.84
2019-05-18T05:10:39.353Z,1003.87
2019-05-18T05:11:39.347Z,1003.91
2019-05-18T05:12:39.335Z,1003.84
2019-05-18T05:13:39.351Z,1003.80
2019-05-18T05:14:39.311Z,1003.84
2019-05-18T05:15:39.297Z,1003.84
2019-05-18T05:16:39.291Z,1003.85
2019-05-18T05:17:39.296Z,1003.86
2019-05-18T05:18:39.271Z,1003.83
2019-05-18T05:19:39.255Z,1003.78
2019-05-18T05:20:39.249Z,1003.80
2019-05-18T05:21:39.243Z,1003.83
2019-05-18T05:22:39.234Z,1003.82
2019-05-18T05:23:39.223Z,1003.83
2019-05-18T05:24:39.199Z,1003.80
2019-05-18T05:25:39.186Z,1003.82
2019-05-18T05:26:39.852Z,1003.79
2019-05-18T05:27:39.168Z,1003.76
2019-05-18T05:28:39.171Z,1003.76
2019-05-18T05:29:39.149Z,1003.75
2019-05-18T05:30:39.150Z,1003.77
2019-05-18T05:31:39.121Z,1003.73
2019-05-18T05:32:39.110Z,1003.84
2019-05-18T05:33:39.117Z,1003.76
2019-05-18T05:34:39.102Z,1003.78
2019-05-18T05:35:39.084Z,1003.84
2019-05-18T05:36:39.074Z,1003.87
2019-05-18T05:37:39.058Z,1003.84
2019-05-18T05:38:39.052Z,1003.82
2019-05-18T05:39:39.048Z,1003.84
2019-05-18T05:40:39.062Z,1003.78
2019-05-18T05:41:39.018Z,1003.84
2019-05-18T05:42:39.007Z,1003.79
2019-05-18T05:43:38.990Z,1003.82
2019-05-18T05:44:38.979Z,1003.83
2019-05-18T05:45:38.983Z,1003.82
2019-05-18T05:46:38.968Z,1003.85
2019-05-18T05:47:38.952Z,1003.89
2019-05-18T05:48:38.936Z,1003.84
2019-05-18T05:49:38.923Z,1003.87
2019-05-18T05:50:38.918Z,1003.89
2019-05-18T05:51:38.914Z,1003.86
2019-05-18T05:52:38.925Z,1003.83
2019-05-18T05:53:38.894Z,1003.88
2019-05-18T05:54:38.874Z,1003.91
2019-05-18T05:55:38.857Z,1003.91
2019-05-18T05:56:38.858Z,1003.88
2019-05-18T05:57:38.838Z,1003.86
2019-05-18T05:58:38.836Z,1003.87
2019-05-18T05:59:38.815Z,1003.84
2019-05-18T06:00:38.807Z,1003.87
2019-05-18T06:01:38.831Z,1003.90
2019-05-18T06:02:38.789Z,1003.89
2019-05-18T06:03:38.768Z,1003.85
2019-05-18T06:04:38.764Z,1003.89
2019-05-18T06:05:38.752Z,1003.90
2019-05-18T06:06:38.755Z,1003.87
2019-05-18T06:07:38.740Z,1003.88
2019-05-18T06:08:38.715Z,1003.96
2019-05-18T06:09:38.715Z,1003.93
2019-05-18T06:10:38.697Z,1003.91
2019-05-18T06:11:38.716Z,1003.94
2019-05-18T06:12:38.673Z,1003.97
2019-05-18T06:13:38.660Z,1003.95
2019-05-18T06:14:38.657Z,1003.93
2019-05-18T06:15:38.651Z,1003.94
2019-05-18T06:16:38.656Z,1003.91
2019-05-18T06:17:38.633Z,1003.97
2019-05-18T06:18:38.621Z,1003.94
2019-05-18T06:19:38.596Z,1003.96
2019-05-18T06:20:50.408Z,1003.96
2019-05-18T06:21:39.574Z,1003.91
2019-05-18T06:22:38.572Z,1003.93
2019-05-18T06:23:38.657Z,1003.94
2019-05-18T06:24:38.542Z,1003.95
2019-05-18T06:25:38.539Z,1003.95
2019-05-18T06:26:38.521Z,1003.92
2019-05-18T06:27:38.516Z,1003.80
2019-05-18T06:28:38.511Z,1003.93
2019-05-18T06:29:38.489Z,1003.79
2019-05-18T06:30:38.484Z,1003.77
2019-05-18T06:31:38.469Z,1003.77
2019-05-18T06:32:38.457Z,1003.79
2019-05-18T06:33:38.492Z,1003.83
2019-05-18T06:34:38.443Z,1003.86
2019-05-18T06:35:38.430Z,1003.81
2019-05-18T06:36:38.420Z,1003.77
2019-05-18T06:37:38.408Z,1003.84
2019-05-18T06:38:38.415Z,1003.79
2019-05-18T06:39:38.386Z,1003.89
2019-05-18T06:40:38.454Z,1003.71
2019-05-18T06:41:38.364Z,1003.79
2019-05-18T06:42:38.356Z,1003.74
2019-05-18T06:43:38.350Z,1003.77
2019-05-18T06:44:38.343Z,1003.80
2019-05-18T06:45:38.353Z,1003.79
2019-05-18T06:46:38.307Z,1003.83
2019-05-18T06:47:38.292Z,1003.75
2019-05-18T06:48:38.285Z,1003.76
2019-05-18T06:49:38.328Z,1003.78
2019-05-18T06:50:38.269Z,1003.78
2019-05-18T06:51:38.255Z,1003.82
2019-05-18T06:52:38.249Z,1003.78
2019-05-18T06:53:38.229Z,1003.82
2019-05-18T06:54:38.228Z,1003.84
2019-05-18T06:55:38.228Z,1003.80
2019-05-18T06:56:38.189Z,1003.73
2019-05-18T06:57:38.182Z,1003.79
2019-05-18T06:58:38.170Z,1003.79
2019-05-18T06:59:38.163Z,1003.81
2019-05-18T07:00:38.160Z,1003.74
2019-05-18T07:01:38.137Z,1003.77
2019-05-18T07:02:38.125Z,1003.81
2019-05-18T07:03:38.153Z,1003.82
2019-05-18T07:04:38.161Z,1003.80
2019-05-18T07:05:38.126Z,1003.74
2019-05-18T07:06:38.083Z,1003.79
2019-05-18T07:07:38.067Z,1003.70
2019-05-18T07:08:38.058Z,1003.75
2019-05-18T07:09:38.049Z,1003.73
2019-05-18T07:10:38.046Z,1003.77
2019-05-18T07:11:38.022Z,1003.82
2019-05-18T07:12:38.022Z,1003.81
2019-05-18T07:13:38.164Z,1003.87
2019-05-18T07:14:37.986Z,1003.82
2019-05-18T07:15:37.991Z,1003.72
2019-05-18T07:16:37.978Z,1003.74
2019-05-18T07:17:37.954Z,1003.72
2019-05-18T07:18:37.947Z,1003.69
2019-05-18T07:19:37.939Z,1003.65
2019-05-18T07:20:37.927Z,1003.62
2019-05-18T07:21:37.925Z,1003.69
2019-05-18T07:22:37.906Z,1003.69
2019-05-18T07:23:37.888Z,1003.60
2019-05-18T07:24:37.883Z,1003.62
2019-05-18T07:25:37.867Z,1003.60
2019-05-18T07:26:37.870Z,1003.67
2019-05-18T07:27:37.843Z,1003.59
2019-05-18T07:28:37.856Z,1003.54
2019-05-18T07:29:37.823Z,1003.56
2019-05-18T07:30:37.816Z,1003.59
2019-05-18T07:31:37.811Z,1003.56
2019-05-18T07:32:37.794Z,1003.52
2019-05-18T07:33:37.778Z,1003.57
2019-05-18T07:34:37.775Z,1003.65
2019-05-18T07:35:37.756Z,1003.56
2019-05-18T07:36:37.751Z,1003.55
2019-05-18T07:37:37.737Z,1003.62
2019-05-18T07:38:37.727Z,1003.58
2019-05-18T07:39:37.726Z,1003.59
2019-05-18T07:40:37.708Z,1003.52
2019-05-18T07:41:46.256Z,1003.58
2019-05-18T07:42:38.676Z,1003.43
2019-05-18T07:43:37.683Z,1003.50
2019-05-18T07:44:37.657Z,1003.53
2019-05-18T07:45:37.654Z,1003.46
2019-05-18T07:46:37.646Z,1003.55
2019-05-18T07:47:37.632Z,1003.46
2019-05-18T07:48:37.653Z,1003.47
2019-05-18T07:49:37.611Z,1003.45
2019-05-18T07:50:37.591Z,1003.46
2019-05-18T07:51:37.599Z,1003.50
2019-05-18T07:52:37.577Z,1003.49
2019-05-18T07:53:37.571Z,1003.50
2019-05-18T07:54:37.556Z,1003.42
2019-05-18T07:55:37.544Z,1003.45
2019-05-18T07:56:37.564Z,1003.40
2019-05-18T07:57:37.521Z,1003.40
2019-05-18T07:58:37.502Z,1003.37
2019-05-18T07:59:37.504Z,1003.27
2019-05-18T08:00:37.489Z,1003.37
2019-05-18T08:01:37.476Z,1003.36
2019-05-18T08:02:37.477Z,1003.38
2019-05-18T08:03:37.455Z,1003.34
2019-05-18T08:04:39.772Z,1003.30
2019-05-18T08:05:37.437Z,1003.28
2019-05-18T08:06:37.420Z,1003.31
2019-05-18T08:07:37.445Z,1003.25
2019-05-18T08:08:37.394Z,1003.22
2019-05-18T08:09:37.384Z,1003.22
2019-05-18T08:10:37.419Z,1003.16
2019-05-18T08:11:37.386Z,1003.22
2019-05-18T08:12:37.431Z,1003.20
2019-05-18T08:13:37.359Z,1003.22
2019-05-18T08:14:37.334Z,1003.20
2019-05-18T08:15:37.328Z,1003.25
2019-05-18T08:16:37.312Z,1003.21
2019-05-18T08:17:37.329Z,1003.23
2019-05-18T08:18:37.294Z,1003.21
2019-05-18T08:19:37.291Z,1003.28
2019-05-18T08:20:37.267Z,1003.31
2019-05-18T08:21:50.813Z,1003.28
2019-05-18T08:22:38.292Z,1003.29
2019-05-18T08:23:37.231Z,1003.26
2019-05-18T08:24:37.232Z,1003.23
2019-05-18T08:25:37.217Z,1003.20
2019-05-18T08:26:37.206Z,1003.19
2019-05-18T08:27:37.188Z,1003.22
2019-05-18T08:28:37.205Z,1003.23
2019-05-18T08:29:37.168Z,1003.17
2019-05-18T08:30:37.158Z,1003.17
2019-05-18T08:31:37.149Z,1003.18
2019-05-18T08:32:37.146Z,1003.14
2019-05-18T08:33:37.127Z,1003.12
2019-05-18T08:34:37.113Z,1003.09
2019-05-18T08:35:37.104Z,1003.06
2019-05-18T08:36:37.090Z,1002.95
2019-05-18T08:37:37.101Z,1002.98
2019-05-18T08:38:37.082Z,1003.01
2019-05-18T08:39:37.061Z,1002.97
2019-05-18T08:40:37.064Z,1002.92
2019-05-18T08:41:37.036Z,1002.89
2019-05-18T08:42:37.027Z,1002.87
2019-05-18T08:43:37.033Z,1002.97
2019-05-18T08:44:37.011Z,1002.96
2019-05-18T08:45:36.997Z,1002.92
2019-05-18T08:46:36.986Z,1002.97
2019-05-18T08:47:36.980Z,1002.99
2019-05-18T08:48:36.968Z,1002.93
2019-05-18T08:49:36.975Z,1002.92
2019-05-18T08:50:36.985Z,1002.92
2019-05-18T08:51:36.928Z,1002.88
2019-05-18T08:52:36.919Z,1002.92
2019-05-18T08:53:36.912Z,1002.92
2019-05-18T08:54:36.957Z,1002.91
2019-05-18T08:55:36.889Z,1002.87
2019-05-18T08:56:36.888Z,1002.91
2019-05-18T08:57:36.872Z,1002.84
2019-05-18T08:58:36.861Z,1002.85
2019-05-18T08:59:39.809Z,1002.81
2019-05-18T09:00:36.918Z,1002.77
2019-05-18T09:01:36.821Z,1002.73
2019-05-18T09:02:36.810Z,1002.77
2019-05-18T09:03:36.800Z,1002.84
2019-05-18T09:04:36.796Z,1002.85
2019-05-18T09:05:36.793Z,1002.84
2019-05-18T09:06:36.778Z,1002.98
2019-05-18T09:07:36.771Z,1002.82
2019-05-18T09:08:36.746Z,1002.84
2019-05-18T09:09:36.738Z,1002.90
2019-05-18T09:10:36.741Z,1002.79
2019-05-18T09:11:36.720Z,1002.87
2019-05-18T09:12:36.723Z,1002.73
2019-05-18T09:13:36.694Z,1002.77
2019-05-18T09:14:36.683Z,1002.76
2019-05-18T09:15:36.703Z,1002.72
2019-05-18T09:16:36.665Z,1002.65
2019-05-18T09:17:36.665Z,1002.68
2019-05-18T09:18:36.649Z,1002.69
2019-05-18T09:19:36.667Z,1002.66
2019-05-18T09:20:36.637Z,1002.66
2019-05-18T09:21:36.627Z,1002.58
2019-05-18T09:22:36.612Z,1002.63
2019-05-18T09:23:36.599Z,1002.67
2019-05-18T09:24:36.585Z,1002.61
2019-05-18T09:25:36.571Z,1002.53
2019-05-18T09:26:36.576Z,1002.57
2019-05-18T09:27:36.559Z,1002.54
2019-05-18T09:28:36.542Z,1002.58
2019-05-18T09:29:36.534Z,1002.55
2019-05-18T09:30:36.524Z,1002.47
2019-05-18T09:31:36.524Z,1002.46
2019-05-18T09:32:36.502Z,1002.44
2019-05-18T09:33:36.490Z,1002.41
2019-05-18T09:34:36.491Z,1002.45
2019-05-18T09:35:36.473Z,1002.45
2019-05-18T09:36:36.489Z,1002.56
2019-05-18T09:37:36.467Z,1002.42
2019-05-18T09:38:36.445Z,1002.47
2019-05-18T09:39:36.429Z,1002.43
2019-05-18T09:40:36.422Z,1002.45
2019-05-18T09:41:36.415Z,1002.43
2019-05-18T09:42:36.438Z,1002.38
2019-05-18T09:43:36.392Z,1002.46
2019-05-18T09:44:36.379Z,1002.49
2019-05-18T09:45:36.372Z,1002.47
2019-05-18T09:46:36.419Z,1002.37
2019-05-18T09:47:36.348Z,1002.47
2019-05-18T09:48:36.349Z,1002.44
2019-05-18T09:49:36.353Z,1002.43
2019-05-18T09:50:36.320Z,1002.35
2019-05-18T09:51:36.310Z,1002.33
2019-05-18T09:52:44.920Z,1002.40
2019-05-18T09:53:50.467Z,1002.42
2019-05-18T09:54:37.278Z,1002.33
2019-05-18T09:55:36.275Z,1002.38
2019-05-18T09:56:36.252Z,1002.39
2019-05-18T09:57:36.251Z,1002.31
2019-05-18T09:58:36.263Z,1002.35
2019-05-18T09:59:36.228Z,1002.34
2019-05-18T10:00:38.988Z,1002.32
2019-05-18T10:01:36.201Z,1002.31
2019-05-18T10:02:36.194Z,1002.27
2019-05-18T10:03:36.181Z,1002.30
2019-05-18T10:04:36.211Z,1002.23
2019-05-18T10:05:36.169Z,1002.21
2019-05-18T10:06:36.163Z,1002.24
2019-05-18T10:07:36.150Z,1002.24
2019-05-18T10:08:36.135Z,1002.20
2019-05-18T10:09:39.249Z,1002.16
2019-05-18T10:10:36.129Z,1002.14
2019-05-18T10:11:38.564Z,1002.18
2019-05-18T10:12:36.112Z,1002.10
2019-05-18T10:13:36.090Z,1002.19
2019-05-18T10:14:36.073Z,1002.14
2019-05-18T10:15:36.063Z,1002.18
2019-05-18T10:16:36.067Z,1002.13
2019-05-18T10:17:36.084Z,1002.18
2019-05-18T10:18:36.033Z,1002.21
2019-05-18T10:19:36.016Z,1002.20
2019-05-18T10:20:36.022Z,1002.18
2019-05-18T10:21:36.002Z,1002.15
2019-05-18T10:22:36.016Z,1002.12
2019-05-18T10:23:35.986Z,1002.23
2019-05-18T10:24:35.971Z,1002.18
2019-05-18T10:25:35.986Z,1002.11
2019-05-18T10:26:35.958Z,1002.07
2019-05-18T10:27:35.945Z,1001.98
2019-05-18T10:28:35.943Z,1001.95
2019-05-18T10:29:35.929Z,1002.00
2019-05-18T10:30:35.906Z,1002.07
2019-05-18T10:31:35.900Z,1002.07
2019-05-18T10:32:35.885Z,1001.97
2019-05-18T10:33:35.897Z,1002.04
2019-05-18T10:34:35.865Z,1002.04
2019-05-18T10:35:35.865Z,1002.03
2019-05-18T10:36:35.851Z,1001.95
2019-05-18T10:37:35.839Z,1001.97
2019-05-18T10:38:35.831Z,1001.91
2019-05-18T10:39:38.609Z,1002.01
2019-05-18T10:40:35.799Z,1001.90
2019-05-18T10:41:35.801Z,1001.90
2019-05-18T10:42:35.781Z,1001.86
2019-05-18T10:43:35.776Z,1001.83
2019-05-18T10:44:35.768Z,1001.90
2019-05-18T10:45:35.760Z,1001.80
2019-05-18T10:46:35.739Z,1001.85
2019-05-18T10:47:35.729Z,1001.82
2019-05-18T10:48:35.729Z,1001.84
2019-05-18T10:49:35.756Z,1001.78
2019-05-18T10:50:35.702Z,1001.79
2019-05-18T10:51:35.688Z,1001.79
2019-05-18T10:52:35.685Z,1001.79
2019-05-18T10:53:35.673Z,1001.83
2019-05-18T10:54:35.686Z,1001.82
2019-05-18T10:55:35.663Z,1001.79
2019-05-18T10:56:35.638Z,1001.69
2019-05-18T10:57:35.626Z,1001.64
2019-05-18T10:58:35.654Z,1001.68
2019-05-18T10:59:35.613Z,1001.70
2019-05-18T11:00:35.608Z,1001.72
2019-05-18T11:01:35.589Z,1001.71
2019-05-18T11:02:35.616Z,1001.65
2019-05-18T11:03:35.571Z,1001.68
2019-05-18T11:04:35.574Z,1001.63
2019-05-18T11:05:35.551Z,1001.54
2019-05-18T11:06:35.557Z,1001.56
2019-05-18T11:07:35.538Z,1001.59
2019-05-18T11:08:38.264Z,1001.55
2019-05-18T11:09:35.522Z,1001.58
2019-05-18T11:10:35.540Z,1001.55
2019-05-18T11:11:35.488Z,1001.57
2019-05-18T11:12:35.475Z,1001.51
2019-05-18T11:13:35.466Z,1001.58
2019-05-18T11:14:35.452Z,1001.62
2019-05-18T11:15:35.448Z,1001.62
2019-05-18T11:16:35.464Z,1001.52
2019-05-18T11:17:35.426Z,1001.54
2019-05-18T11:18:35.417Z,1001.51
2019-05-18T11:19:35.409Z,1001.60
2019-05-18T11:20:35.423Z,1001.63
2019-05-18T11:21:35.396Z,1001.58
2019-05-18T11:22:35.391Z,1001.61
2019-05-18T11:23:43.285Z,1001.63
2019-05-18T11:24:36.356Z,1001.65
2019-05-18T11:25:35.344Z,1001.64
2019-05-18T11:26:35.339Z,1001.63
2019-05-18T11:27:35.331Z,1001.65
2019-05-18T11:28:35.326Z,1001.67
2019-05-18T11:29:35.363Z,1001.63
2019-05-18T11:30:35.302Z,1001.67
2019-05-18T11:31:35.314Z,1001.40
2019-05-18T11:32:35.291Z,1001.38
2019-05-18T11:33:35.264Z,1001.59
2019-05-18T11:34:35.250Z,1001.67
2019-05-18T11:35:35.247Z,1001.63
2019-05-18T11:36:35.233Z,1001.61
2019-05-18T11:37:35.234Z,1001.68
2019-05-18T11:38:35.222Z,1001.48
2019-05-18T11:39:35.227Z,1001.44
2019-05-18T11:40:35.187Z,1001.64
2019-05-18T11:41:35.192Z,1001.66
2019-05-18T11:42:35.197Z,1001.65
2019-05-18T11:43:35.160Z,1001.57
2019-05-18T11:44:35.159Z,1001.55
2019-05-18T11:45:35.137Z,1001.53
2019-05-18T11:46:35.127Z,1001.60
2019-05-18T11:47:35.121Z,1001.63
2019-05-18T11:48:35.127Z,1001.58
2019-05-18T11:49:35.204Z,1001.57
2019-05-18T11:50:35.090Z,1001.56
2019-05-18T11:51:35.076Z,1001.58
2019-05-18T11:52:35.071Z,1001.52
2019-05-18T11:53:35.073Z,1001.56
2019-05-18T11:54:35.046Z,1001.59
2019-05-18T11:55:35.044Z,1001.36
2019-05-18T11:56:35.043Z,1001.55
2019-05-18T11:57:35.020Z,1001.59
2019-05-18T11:58:35.022Z,1001.45
2019-05-18T11:59:35.005Z,1001.33
2019-05-18T12:00:34.994Z,1001.55
2019-05-18T12:01:34.987Z,1001.51
2019-05-18T12:02:34.971Z,1001.31
2019-05-18T12:03:34.960Z,1001.25
2019-05-18T12:04:35.019Z,1001.30
2019-05-18T12:05:34.937Z,1001.33